Gesten

EKGE · 南丹麦大区, 丹麦

罗盘
风向 的 风向 240° Gesten 9/27
风: 9 kt, 3 beaufort

7 kt

5 kt
改变
0 ft 1.000 2.000 3.000 4.000 5.000
Cloud Cloud
FEW 400
Cloud Cloud Cloud Cloud Cloud Cloud
BKN 700
METAR EKVD 150750Z 24009KT 4000 -SHRA BR FEW004 BKN007 16/15 Q1009

METAR Gesten - EKGE

Gesten是,丹麦中的格利德菲尔德。 该机场位于纬度55,55202和经度9,18593。 该机场有一条跑道: 9/27. 本场的ICAO机场代码为EKGE。 机场在Kobenhavn FIR中。

该航空气象观测是针对Kolding Vamdrup Airfield在2024年7月15日 09:50, 当地时间进行的。

机场观察

风向为240°,速度为9 kt。

可见度为4 km。

有几云在400 ft的高度 和 碎云在700 ft的高度。 破损或更高的上限为700 ft。

当前天气为光 阵雨 雨, 薄雾。 温度和风寒是16 °C。 露点为15 °C,相对湿度为94%。 海平面上的气压为1009 hPa (QNH)。

白天

今天,太阳从05:02升起,在21:56降落。 这适用于Gesten,世界夏令时可能有所不同。 当地时间与世界标准时间之间的时差为+2 小时。 夏令时目前正在进行中。

公司介绍

我们没有关于这个机场的公司信息。

体会

到Vliegles.nl去找飞行课程,跳伞和其他飞行体验。 浏览页面,了解Gesten附近所有可用的活动。 你也可以使用搜索功能来寻找你所在地附近的特定飞行课程、跳伞或其他飞行体验。

跑道

Id 标题 侧风 逆风 侧风 %
9/27 097°-277° 5 kt 7 kt 60 %

逆风成分最大的方向会被突出显示,并用于横风计算。 这并不一定意味着这个方向在使用。

乌云

400 ft FEW 几云
700 ft BKN 碎云

温度 & 天气

天气 光 阵雨 雨
薄雾
温度 16 °C
露点 15 °C
相对湿度 94%
Kp-index 1 (0-9)

白天

日出
05:02
中午
13:28
日落
21:55 (11:35)

小工具

你想在你的网站上有一个关于Gesten的当前航空天气(METAR)的小部件吗?

显示HTML代码
报告变更